createdAt,value
2019-03-28T00:01:46.130Z,95574.54
2019-03-28T00:06:48.096Z,95567.41
2019-03-28T00:11:49.847Z,95575.13
2019-03-28T00:16:51.586Z,95573.72
2019-03-28T00:21:54.231Z,95579.24
2019-03-28T00:26:55.992Z,95591.98
2019-03-28T00:31:57.725Z,95577.11
2019-03-28T00:36:59.484Z,95582.67
2019-03-28T00:42:01.194Z,95574.55
2019-03-28T00:47:03.023Z,95575.43
2019-03-28T00:52:04.845Z,95573.92
2019-03-28T00:57:06.614Z,95574.51
2019-03-28T01:02:08.373Z,95573.61
2019-03-28T01:07:10.119Z,95584.08
2019-03-28T01:12:11.830Z,95580.55
2019-03-28T01:17:13.598Z,95580.92
2019-03-28T01:22:15.351Z,95588.75
2019-03-28T01:27:18.048Z,95585.64
2019-03-28T01:32:19.785Z,95584.67
2019-03-28T01:37:21.542Z,95579.98
2019-03-28T01:42:23.262Z,95582.15
2019-03-28T01:47:24.972Z,95584.81
2019-03-28T01:52:26.788Z,95581.81
2019-03-28T01:57:28.566Z,95583.94
2019-03-28T02:02:30.319Z,95577.31
2019-03-28T02:07:32.070Z,95574.71
2019-03-28T02:12:33.779Z,95587.69
2019-03-28T02:17:35.514Z,95588.07
2019-03-28T02:22:37.265Z,95587.95
2019-03-28T02:27:39.826Z,95586.31
2019-03-28T02:32:41.556Z,95587.61
2019-03-28T02:37:43.346Z,95598.93
2019-03-28T02:42:45.056Z,95597.70
2019-03-28T02:47:46.759Z,95597.24
2019-03-28T02:52:48.463Z,95598.36
2019-03-28T02:57:50.215Z,95600.30
2019-03-28T03:02:52.051Z,95607.73
2019-03-28T03:07:53.856Z,95605.70
2019-03-28T03:12:55.606Z,95611.56
2019-03-28T03:17:57.304Z,95616.10
2019-03-28T03:22:59.012Z,95625.69
2019-03-28T03:28:00.892Z,95628.73
2019-03-28T03:33:02.614Z,95617.69
2019-03-28T03:38:05.330Z,95626.05
2019-03-28T03:43:07.071Z,95629.20
2019-03-28T03:48:08.800Z,95637.83
2019-03-28T03:53:10.563Z,95639.58
2019-03-28T03:58:16.085Z,95637.63
2019-03-28T04:03:15.878Z,95633.08
2019-03-28T04:08:17.563Z,95632.55
2019-03-28T04:13:19.207Z,95635.16
2019-03-28T04:18:22.221Z,95641.82
2019-03-28T04:23:24.358Z,95651.40
2019-03-28T04:28:32.145Z,95659.75
2019-03-28T04:33:29.703Z,95666.00
2019-03-28T04:38:31.368Z,95674.61
2019-03-28T04:43:33.106Z,95686.55
2019-03-28T04:48:34.790Z,95683.29
2019-03-28T04:53:37.524Z,95697.02
2019-03-28T04:58:44.788Z,95703.06
2019-03-28T05:03:42.992Z,95701.09
2019-03-28T05:08:44.753Z,95704.65
2019-03-28T05:13:46.519Z,95708.58
2019-03-28T05:18:48.238Z,95704.83
2019-03-28T05:23:49.953Z,95697.18
2019-03-28T05:28:57.400Z,95704.94
2019-03-28T05:33:55.334Z,95704.26
2019-03-28T05:38:57.121Z,95701.19
2019-03-28T05:43:58.892Z,95699.92
2019-03-28T05:49:00.623Z,95700.40
2019-03-28T05:54:02.347Z,95701.29
2019-03-28T05:59:10.697Z,95690.94
2019-03-28T06:04:08.334Z,95693.19
2019-03-28T06:09:10.180Z,95702.97
2019-03-28T06:14:11.892Z,95689.71
2019-03-28T06:19:13.562Z,95685.84
2019-03-28T06:24:15.249Z,95700.48
2019-03-28T06:29:23.872Z,95700.23
2019-03-28T06:34:20.591Z,95697.75
2019-03-28T06:39:22.313Z,95704.55
2019-03-28T06:44:24.024Z,95700.92
2019-03-28T06:49:25.809Z,95693.53
2019-03-28T06:54:27.582Z,95691.77
2019-03-28T06:59:37.201Z,95696.97
2019-03-28T07:04:32.995Z,95693.39
2019-03-28T07:09:34.666Z,95691.63
2019-03-28T07:14:36.432Z,95703.16
2019-03-28T07:19:38.182Z,95689.95
2019-03-28T07:24:39.945Z,95690.92
2019-03-28T07:29:50.915Z,95691.29
2019-03-28T07:34:45.427Z,95689.34
2019-03-28T07:39:47.220Z,95688.11
2019-03-28T07:44:48.946Z,95690.91
2019-03-28T07:49:51.830Z,95693.66
2019-03-28T07:54:53.581Z,95692.20
2019-03-28T08:00:03.977Z,95686.52
2019-03-28T08:05:01.351Z,95683.02
2019-03-28T08:10:06.438Z,95688.80
2019-03-28T08:15:09.351Z,95695.58
2019-03-28T08:20:11.062Z,95693.58
2019-03-28T08:25:13.773Z,95692.13
2019-03-28T08:30:18.687Z,95689.78
2019-03-28T08:35:18.973Z,95683.68
2019-03-28T08:40:32.954Z,95685.35
2019-03-28T08:45:34.706Z,95691.62
2019-03-28T08:50:36.521Z,95689.98
2019-03-28T08:55:38.233Z,95692.75
2019-03-28T09:00:51.567Z,95700.14
2019-03-28T09:05:44.773Z,95702.66
2019-03-28T09:10:46.529Z,95711.05
2019-03-28T09:15:50.642Z,95702.27
2019-03-28T09:20:52.452Z,95704.94
2019-03-28T09:25:54.174Z,95708.22
2019-03-28T09:30:55.962Z,95703.27
2019-03-28T09:35:57.680Z,95694.56
2019-03-28T09:40:59.457Z,95699.99
2019-03-28T09:46:02.020Z,95707.44
2019-03-28T09:51:03.869Z,95707.50
2019-03-28T09:56:05.639Z,95705.52
2019-03-28T10:01:07.354Z,95694.81
2019-03-28T10:06:09.104Z,95693.27
2019-03-28T10:11:10.831Z,95694.13
2019-03-28T10:16:13.560Z,95691.99
2019-03-28T10:21:15.328Z,95687.32
2019-03-28T10:26:17.078Z,95669.19
2019-03-28T10:31:18.950Z,95673.13
2019-03-28T10:36:20.685Z,95664.33
2019-03-28T10:41:25.631Z,95658.53
2019-03-28T10:46:25.990Z,95656.00
2019-03-28T10:51:27.729Z,95652.47
2019-03-28T10:56:29.557Z,95643.48
2019-03-28T11:01:47.480Z,95647.78
2019-03-28T11:06:35.921Z,95637.02
2019-03-28T11:11:37.634Z,95632.09
2019-03-28T11:16:39.413Z,95620.27
2019-03-28T11:21:41.117Z,95619.78
2019-03-28T11:26:42.860Z,95618.34
2019-03-28T11:31:47.751Z,95611.77
2019-03-28T11:36:48.292Z,95601.31
2019-03-28T11:41:51.069Z,95593.73
2019-03-28T11:46:52.758Z,95583.77
2019-03-28T11:51:54.499Z,95575.56
2019-03-28T11:56:56.252Z,95565.22
2019-03-28T12:02:00.525Z,95560.75
2019-03-28T12:07:01.602Z,95550.98
2019-03-28T12:12:04.453Z,95550.16
2019-03-28T12:17:06.198Z,95544.05
2019-03-28T12:22:07.954Z,95548.20
2019-03-28T12:27:09.842Z,95530.95
2019-03-28T12:32:14.224Z,95524.52
2019-03-28T12:37:15.366Z,95515.59
2019-03-28T12:42:17.188Z,95512.59
2019-03-28T12:47:18.932Z,95510.61
2019-03-28T12:52:20.789Z,95501.03
2019-03-28T12:57:22.482Z,95487.45
2019-03-28T13:02:31.455Z,95485.13
2019-03-28T13:07:28.156Z,95483.98
2019-03-28T13:12:30.082Z,95475.86
2019-03-28T13:17:31.899Z,95461.32
2019-03-28T13:22:33.648Z,95471.73
2019-03-28T13:27:36.560Z,95486.56
2019-03-28T13:32:41.963Z,95481.74
2019-03-28T13:37:42.441Z,95467.09
2019-03-28T13:42:44.282Z,95469.23
2019-03-28T13:47:45.994Z,95469.59
2019-03-28T13:52:48.858Z,95456.31
2019-03-28T13:57:52.266Z,95466.55
2019-03-28T14:02:58.552Z,95466.86
2019-03-28T14:07:57.920Z,95474.88
2019-03-28T14:13:00.046Z,95475.84
2019-03-28T14:18:01.823Z,95477.48
2019-03-28T14:23:04.822Z,95478.19
2019-03-28T14:28:06.661Z,95474.27
2019-03-28T14:33:11.491Z,95473.70
2019-03-28T14:38:12.184Z,95479.89
2019-03-28T14:43:13.979Z,95469.94
2019-03-28T14:48:15.785Z,95470.16
2019-03-28T14:53:17.629Z,95472.34
2019-03-28T14:58:22.087Z,95477.86
2019-03-28T15:03:26.955Z,95473.11
2019-03-28T15:08:27.736Z,95474.20
2019-03-28T15:13:31.284Z,95476.02
2019-03-28T15:18:33.054Z,95483.48
2019-03-28T15:23:35.210Z,95481.14
2019-03-28T15:28:37.002Z,95483.77
2019-03-28T15:33:40.109Z,95479.27
2019-03-28T15:38:42.223Z,95487.33
2019-03-28T15:43:44.107Z,95497.58
2019-03-28T15:48:46.070Z,95505.70
2019-03-28T15:53:47.910Z,95508.27
2019-03-28T15:58:49.776Z,95517.73
2019-03-28T16:03:53.374Z,95513.97
2019-03-28T16:08:55.384Z,95523.84
2019-03-28T16:13:57.184Z,95530.72
2019-03-28T16:19:01.653Z,95528.78
2019-03-28T16:24:04.005Z,95531.61
2019-03-28T16:29:05.924Z,95526.03
2019-03-28T16:34:09.684Z,95531.28
2019-03-28T16:39:11.969Z,95529.19
2019-03-28T16:44:15.173Z,95533.61
2019-03-28T16:49:17.154Z,95537.55
2019-03-28T16:54:19.090Z,95538.65
2019-03-28T16:59:21.070Z,95542.34
2019-03-28T17:04:24.075Z,95547.86
2019-03-28T17:09:26.076Z,95547.16
2019-03-28T17:14:28.110Z,95553.27
2019-03-28T17:19:30.037Z,95555.25
2019-03-28T17:24:32.063Z,95561.53
2019-03-28T17:42:54.484Z,95579.41
2019-03-28T17:47:56.533Z,95584.92
2019-03-28T17:53:00.092Z,95596.80
2019-03-28T17:58:02.068Z,95599.16
2019-03-28T18:03:09.508Z,95599.84
2019-03-28T18:08:09.107Z,95612.70
2019-03-28T18:13:11.057Z,95620.50
2019-03-28T18:18:14.431Z,95618.66
2019-03-28T18:23:18.192Z,95621.81
2019-03-28T18:28:20.020Z,95614.55
2019-03-28T18:33:21.986Z,95630.27
2019-03-28T18:38:23.752Z,95631.80
2019-03-28T18:43:25.581Z,95632.59
2019-03-28T18:48:34.370Z,95638.27
2019-03-28T18:53:32.671Z,95637.55
2019-03-28T18:58:34.521Z,95638.73
2019-03-28T19:03:36.320Z,95651.33
2019-03-28T19:08:38.137Z,95646.65
2019-03-28T19:13:40.012Z,95662.47
2019-03-28T19:18:41.839Z,95658.95
2019-03-28T19:23:43.584Z,95654.67
2019-03-28T19:28:45.476Z,95658.94
2019-03-28T19:33:47.332Z,95655.39
2019-03-28T19:38:49.440Z,95660.03
2019-03-28T19:43:52.175Z,95660.73
2019-03-28T19:48:53.947Z,95658.61
2019-03-28T19:53:55.889Z,95671.11
2019-03-28T19:58:59.140Z,95668.22
2019-03-28T20:04:01.156Z,95679.61
2019-03-28T20:09:15.721Z,95670.75
2019-03-28T20:14:08.978Z,95665.55
2019-03-28T20:19:10.855Z,95661.03
2019-03-28T20:24:12.659Z,95673.03
2019-03-28T20:29:14.684Z,95679.34
2019-03-28T20:34:16.532Z,95683.64
2019-03-28T20:39:18.538Z,95682.98
2019-03-28T20:44:20.634Z,95679.77
2019-03-28T20:49:22.552Z,95690.47
2019-03-28T20:54:24.424Z,95686.43
2019-03-28T20:59:26.334Z,95684.85
2019-03-28T21:04:31.699Z,95688.67
2019-03-28T21:09:31.949Z,95690.95
2019-03-28T21:14:33.793Z,95693.45
2019-03-28T21:19:35.577Z,95696.34
2019-03-28T21:24:37.420Z,95694.06
2019-03-28T21:29:48.730Z,95697.42
2019-03-28T21:34:45.180Z,95710.58
2019-03-28T21:39:47.054Z,95706.45
2019-03-28T21:44:49.099Z,95704.39
2019-03-28T21:49:51.001Z,95702.67
2019-03-28T21:54:52.838Z,95704.59
2019-03-28T21:59:54.702Z,95707.69
2019-03-28T22:04:56.504Z,95716.10
2019-03-28T22:09:58.407Z,95697.73
2019-03-28T22:15:00.503Z,95710.57
2019-03-28T22:20:05.098Z,95706.31
2019-03-28T22:25:06.896Z,95709.12
2019-03-28T22:30:08.633Z,95704.80
2019-03-28T22:35:10.588Z,95710.92
2019-03-28T22:40:12.491Z,95710.32
2019-03-28T22:45:14.255Z,95716.41
2019-03-28T22:50:16.035Z,95712.94
2019-03-28T22:55:17.867Z,95720.52
2019-03-28T23:00:21.894Z,95721.70
2019-03-28T23:05:25.563Z,95718.94
2019-03-28T23:10:27.281Z,95722.92
2019-03-28T23:15:29.080Z,95724.13
2019-03-28T23:20:33.611Z,95725.28
2019-03-28T23:25:34.546Z,95726.75
2019-03-28T23:30:36.275Z,95720.52
2019-03-28T23:35:38.031Z,95719.88
2019-03-28T23:40:39.778Z,95724.62
2019-03-28T23:45:41.588Z,95733.63
2019-03-28T23:50:43.408Z,95732.98
2019-03-28T23:55:45.192Z,95732.25
